createdAt,value
2023-01-18T00:00:46.992Z,5.00
2023-01-18T00:03:14.134Z,5.00
2023-01-18T00:05:42.136Z,4.90
2023-01-18T00:08:10.671Z,4.80
2023-01-18T00:10:37.948Z,4.90
2023-01-18T00:13:05.260Z,4.90
2023-01-18T00:15:33.104Z,4.80
2023-01-18T00:17:59.933Z,4.80
2023-01-18T00:20:28.411Z,4.70
2023-01-18T00:22:55.871Z,4.60
2023-01-18T00:25:24.330Z,4.70
2023-01-18T00:27:53.316Z,4.70
2023-01-18T00:30:22.922Z,4.90
2023-01-18T00:32:53.479Z,5.00
2023-01-18T00:35:22.187Z,4.90
2023-01-18T00:37:51.605Z,4.80
2023-01-18T00:40:20.373Z,4.90
2023-01-18T00:43:05.947Z,4.90
2023-01-18T00:45:32.824Z,5.10
2023-01-18T00:47:59.587Z,5.20
2023-01-18T00:50:26.360Z,5.30
2023-01-18T00:52:57.094Z,5.30
2023-01-18T00:55:24.315Z,5.30
2023-01-18T00:57:51.209Z,5.30
2023-01-18T01:00:19.229Z,5.30
2023-01-18T01:02:46.007Z,5.40
2023-01-18T01:05:40.753Z,5.40
2023-01-18T01:08:07.912Z,5.40
2023-01-18T01:10:36.095Z,5.50
2023-01-18T01:13:21.442Z,5.40
2023-01-18T01:16:06.948Z,4.80
2023-01-18T01:18:52.400Z,5.50
2023-01-18T01:21:37.813Z,5.50
2023-01-18T01:24:23.687Z,5.40
2023-01-18T01:26:50.390Z,5.10
2023-01-18T01:29:17.588Z,5.00
2023-01-18T01:31:44.584Z,5.00
2023-01-18T01:34:11.340Z,5.10
2023-01-18T01:36:38.210Z,5.10
2023-01-18T01:39:07.090Z,5.00
2023-01-18T01:41:35.151Z,5.10
2023-01-18T01:44:30.177Z,5.00
2023-01-18T01:47:09.470Z,5.10
2023-01-18T01:49:41.640Z,5.20
2023-01-18T01:52:15.853Z,5.20
2023-01-18T01:54:47.787Z,5.30
2023-01-18T01:57:21.894Z,5.20
2023-01-18T02:00:01.011Z,5.00
2023-01-18T02:02:29.756Z,5.00
2023-01-18T02:04:59.048Z,5.00
2023-01-18T02:07:26.408Z,5.00
2023-01-18T02:09:54.343Z,5.00
2023-01-18T02:12:21.096Z,5.00
2023-01-18T02:14:47.912Z,5.00
2023-01-18T02:17:48.667Z,5.10
2023-01-18T02:20:47.323Z,5.20
2023-01-18T02:23:22.879Z,5.10
2023-01-18T02:25:49.508Z,5.20
2023-01-18T02:28:20.964Z,5.20
2023-01-18T02:30:47.700Z,5.10
2023-01-18T02:33:18.186Z,5.00
2023-01-18T02:35:52.316Z,4.80
2023-01-18T02:38:44.266Z,4.60
2023-01-18T02:41:46.480Z,4.60
2023-01-18T02:44:36.362Z,4.60
2023-01-18T02:47:04.547Z,4.50
2023-01-18T02:49:32.251Z,4.70
2023-01-18T02:52:06.838Z,4.90
2023-01-18T02:54:37.481Z,4.90
2023-01-18T02:57:08.894Z,4.80
2023-01-18T02:59:41.510Z,5.00
2023-01-18T03:02:18.213Z,5.00
2023-01-18T03:04:57.017Z,5.10
2023-01-18T03:07:36.051Z,5.00
2023-01-18T03:10:09.579Z,4.90
2023-01-18T03:13:05.197Z,4.90
2023-01-18T03:15:56.290Z,4.90
2023-01-18T03:18:59.838Z,4.80
2023-01-18T03:21:48.505Z,4.90
2023-01-18T03:24:18.172Z,4.90
2023-01-18T03:26:49.934Z,4.90
2023-01-18T03:29:37.864Z,5.00
2023-01-18T03:32:23.253Z,5.10
2023-01-18T03:34:55.874Z,5.20
2023-01-18T03:37:43.657Z,5.10
2023-01-18T03:40:13.358Z,5.20
2023-01-18T03:42:58.063Z,5.10
2023-01-18T03:45:35.126Z,4.90
2023-01-18T03:48:02.461Z,4.90
2023-01-18T03:51:02.211Z,5.00
2023-01-18T03:53:42.627Z,5.10
2023-01-18T03:56:22.468Z,5.10
2023-01-18T03:58:52.659Z,5.20
2023-01-18T04:01:19.438Z,5.20
2023-01-18T04:03:46.470Z,5.20
2023-01-18T04:06:13.183Z,5.30
2023-01-18T04:08:39.885Z,5.30
2023-01-18T04:11:06.693Z,5.30
2023-01-18T04:13:33.432Z,5.40
2023-01-18T04:16:00.191Z,5.40
2023-01-18T04:18:27.067Z,5.40
2023-01-18T04:20:56.462Z,5.40
2023-01-18T04:23:23.979Z,5.40
2023-01-18T04:25:51.535Z,5.40
2023-01-18T04:28:25.276Z,5.30
2023-01-18T04:30:53.468Z,5.40
2023-01-18T04:33:20.694Z,5.30
2023-01-18T04:35:48.576Z,5.30
2023-01-18T04:38:16.728Z,5.20
2023-01-18T04:40:43.652Z,5.20
2023-01-18T04:43:10.401Z,5.20
2023-01-18T04:45:37.195Z,5.10
2023-01-18T04:48:04.406Z,5.10
2023-01-18T04:50:31.161Z,5.00
2023-01-18T04:52:58.798Z,5.00
2023-01-18T04:55:25.751Z,5.00
2023-01-18T04:57:59.501Z,4.90
2023-01-18T05:00:26.184Z,4.80
2023-01-18T05:02:52.929Z,4.90
2023-01-18T05:05:19.725Z,4.80
2023-01-18T05:07:46.505Z,4.80
2023-01-18T05:10:13.722Z,4.70
2023-01-18T05:12:40.806Z,4.80
2023-01-18T05:15:08.318Z,4.70
2023-01-18T05:17:35.199Z,4.70
2023-01-18T05:20:04.388Z,4.60
2023-01-18T05:22:33.036Z,4.70
2023-01-18T05:25:00.551Z,4.70
2023-01-18T05:27:27.391Z,4.70
2023-01-18T05:29:54.120Z,4.70
2023-01-18T05:32:20.872Z,4.70
2023-01-18T05:34:47.644Z,4.70
2023-01-18T05:37:14.420Z,4.60
2023-01-18T05:39:41.191Z,4.60
2023-01-18T05:42:08.784Z,5.50
2023-01-18T05:44:35.876Z,4.40
2023-01-18T05:47:02.635Z,4.40
2023-01-18T05:49:30.063Z,4.40
2023-01-18T05:51:56.885Z,4.30
2023-01-18T05:54:23.694Z,4.30
2023-01-18T05:56:50.637Z,4.40
2023-01-18T05:59:17.419Z,4.30
2023-01-18T06:01:44.172Z,4.30
2023-01-18T06:04:11.291Z,4.30
2023-01-18T06:06:38.136Z,4.30
2023-01-18T06:09:05.023Z,4.20
2023-01-18T06:11:31.884Z,4.20
2023-01-18T06:13:58.620Z,4.10
2023-01-18T06:16:25.367Z,4.20
2023-01-18T06:18:52.139Z,4.20
2023-01-18T06:21:18.921Z,4.10
2023-01-18T06:23:45.627Z,4.20
2023-01-18T06:26:12.377Z,4.10
2023-01-18T06:28:39.093Z,4.10
2023-01-18T06:31:08.259Z,4.00
2023-01-18T06:33:35.360Z,4.10
2023-01-18T06:36:02.479Z,4.10
2023-01-18T06:38:29.883Z,4.00
2023-01-18T06:40:57.036Z,4.00
2023-01-18T06:43:24.127Z,4.10
2023-01-18T06:45:57.861Z,4.10
2023-01-18T06:48:26.431Z,4.00
2023-01-18T06:50:56.701Z,4.10
2023-01-18T06:53:23.590Z,3.90
2023-01-18T06:55:54.970Z,3.60
2023-01-18T06:58:21.685Z,3.40
2023-01-18T07:00:48.849Z,3.30
2023-01-18T07:03:15.595Z,3.20
2023-01-18T07:05:42.431Z,3.20
2023-01-18T07:08:09.253Z,3.40
2023-01-18T07:10:36.321Z,3.50
2023-01-18T07:13:03.067Z,3.70
2023-01-18T07:15:29.940Z,3.80
2023-01-18T07:17:56.730Z,3.80
2023-01-18T07:20:23.674Z,3.80
2023-01-18T07:22:52.076Z,3.80
2023-01-18T07:25:20.682Z,3.80
2023-01-18T07:27:49.038Z,3.80
2023-01-18T07:30:16.346Z,3.80
2023-01-18T07:32:51.673Z,3.80
2023-01-18T07:35:22.248Z,3.90
2023-01-18T07:37:50.435Z,3.70
2023-01-18T07:40:17.681Z,3.80
2023-01-18T07:42:44.861Z,3.70
2023-01-18T07:45:13.808Z,3.90
2023-01-18T07:47:41.859Z,4.00
2023-01-18T07:50:09.821Z,4.00
2023-01-18T07:52:36.598Z,3.80
2023-01-18T07:55:06.515Z,3.60
2023-01-18T07:57:33.595Z,3.50
2023-01-18T08:00:00.392Z,3.40
2023-01-18T08:02:27.258Z,3.30
2023-01-18T08:04:54.188Z,3.30
2023-01-18T08:07:21.040Z,3.40
2023-01-18T08:09:47.763Z,3.40
2023-01-18T08:12:18.089Z,3.40
2023-01-18T08:14:48.113Z,3.40
2023-01-18T08:17:14.851Z,3.40
2023-01-18T08:19:41.687Z,3.70
2023-01-18T08:22:08.474Z,3.80
2023-01-18T08:24:35.270Z,3.90
2023-01-18T08:27:02.064Z,3.80
2023-01-18T08:29:28.877Z,3.70
2023-01-18T08:31:56.138Z,3.70
2023-01-18T08:34:23.462Z,3.60
2023-01-18T08:36:50.991Z,3.60
2023-01-18T08:39:17.803Z,3.60
2023-01-18T08:41:46.610Z,3.60
2023-01-18T08:44:13.687Z,3.40
2023-01-18T08:46:40.598Z,3.30
2023-01-18T08:49:07.725Z,3.30
2023-01-18T08:51:34.716Z,3.40
2023-01-18T08:54:01.837Z,3.60
2023-01-18T08:56:29.355Z,3.60
2023-01-18T08:58:56.390Z,3.30
2023-01-18T09:01:26.200Z,3.30
2023-01-18T09:03:58.574Z,3.20
2023-01-18T09:06:31.754Z,3.20
2023-01-18T09:08:59.477Z,3.30
2023-01-18T09:11:26.353Z,3.30
2023-01-18T09:14:00.792Z,3.40
2023-01-18T09:16:29.150Z,4.20
2023-01-18T09:18:56.296Z,3.60
2023-01-18T09:21:23.470Z,3.80
2023-01-18T09:23:50.909Z,3.80
2023-01-18T09:26:20.411Z,3.90
2023-01-18T09:28:52.700Z,4.10
2023-01-18T09:31:21.989Z,4.10
2023-01-18T09:33:53.645Z,4.20
2023-01-18T09:36:26.454Z,4.00
2023-01-18T09:38:54.243Z,4.00
2023-01-18T09:41:47.407Z,4.10
2023-01-18T09:44:35.007Z,3.90
2023-01-18T09:47:22.344Z,4.00
2023-01-18T09:49:57.506Z,4.20
2023-01-18T09:52:33.656Z,4.50
2023-01-18T09:55:08.796Z,4.80
2023-01-18T09:57:55.401Z,5.00
2023-01-18T10:00:26.719Z,5.10
2023-01-18T10:03:00.694Z,4.90
2023-01-18T10:05:33.258Z,4.80
2023-01-18T10:08:12.065Z,4.90
2023-01-18T10:10:44.887Z,5.00
2023-01-18T10:13:33.685Z,5.10
2023-01-18T10:16:02.456Z,5.10
2023-01-18T10:18:30.300Z,5.00
2023-01-18T10:21:04.929Z,5.00
2023-01-18T10:23:36.675Z,5.00
2023-01-18T10:26:09.581Z,4.80
2023-01-18T10:28:45.300Z,4.70
2023-01-18T10:31:50.425Z,4.60
2023-01-18T10:34:20.714Z,4.70
2023-01-18T10:37:07.081Z,4.70
2023-01-18T10:39:43.841Z,4.90
2023-01-18T10:42:46.377Z,5.30
2023-01-18T10:45:23.823Z,5.60
2023-01-18T10:47:53.086Z,5.80
2023-01-18T10:50:35.569Z,5.80
2023-01-18T10:53:21.318Z,5.80
2023-01-18T10:55:59.947Z,6.20
2023-01-18T10:58:33.955Z,6.00
2023-01-18T11:01:03.594Z,6.10
2023-01-18T11:03:35.873Z,6.40
2023-01-18T11:06:06.888Z,6.50
2023-01-18T11:08:35.554Z,6.50
2023-01-18T11:11:16.121Z,6.50
2023-01-18T11:13:45.865Z,6.60
2023-01-18T11:16:21.057Z,6.70
2023-01-18T11:18:57.882Z,6.70
2023-01-18T11:21:31.779Z,6.70
2023-01-18T11:24:05.471Z,6.80
2023-01-18T11:26:32.551Z,6.90
2023-01-18T11:29:02.040Z,7.00
2023-01-18T11:31:46.000Z,7.20
2023-01-18T11:34:30.152Z,7.80
2023-01-18T11:36:58.465Z,9.40
2023-01-18T11:39:33.268Z,10.60
2023-01-18T11:42:17.022Z,13.50
2023-01-18T11:44:55.689Z,16.50
2023-01-18T11:47:33.993Z,15.60
2023-01-18T11:50:22.541Z,12.90
2023-01-18T11:52:53.868Z,10.80
2023-01-18T11:55:26.861Z,9.60
2023-01-18T11:57:54.131Z,8.30
2023-01-18T12:00:27.962Z,7.50
2023-01-18T12:03:13.306Z,6.90
2023-01-18T12:05:57.736Z,6.60
2023-01-18T12:08:38.216Z,6.70
2023-01-18T12:11:23.454Z,6.50
2023-01-18T12:14:12.762Z,6.30
2023-01-18T12:17:07.459Z,6.50
2023-01-18T12:19:45.687Z,6.20
2023-01-18T12:22:31.538Z,6.20
2023-01-18T12:25:35.181Z,6.30
2023-01-18T12:28:26.809Z,6.30
2023-01-18T12:31:08.848Z,6.40
2023-01-18T12:33:52.897Z,6.40
2023-01-18T12:36:49.192Z,6.40
2023-01-18T12:39:25.052Z,6.70
2023-01-18T12:42:05.725Z,6.80
2023-01-18T12:44:38.282Z,6.60
2023-01-18T12:47:39.804Z,6.20
2023-01-18T12:50:24.942Z,6.00
2023-01-18T12:52:57.325Z,6.00
2023-01-18T12:55:26.073Z,5.90
2023-01-18T12:58:00.898Z,6.00
2023-01-18T13:00:36.667Z,5.90
2023-01-18T13:03:05.935Z,5.90
2023-01-18T13:05:52.711Z,5.90
2023-01-18T13:08:27.641Z,5.80
2023-01-18T13:11:03.393Z,5.80
2023-01-18T13:13:31.000Z,6.00
2023-01-18T13:16:31.732Z,5.80
2023-01-18T13:19:03.772Z,5.70
2023-01-18T13:22:00.241Z,5.80
2023-01-18T13:24:32.921Z,5.80
2023-01-18T13:27:11.852Z,6.00
2023-01-18T13:29:39.836Z,6.10
2023-01-18T13:32:27.895Z,5.90
2023-01-18T13:35:19.586Z,6.00
2023-01-18T13:37:57.788Z,5.90
2023-01-18T13:40:24.950Z,6.10
2023-01-18T13:42:51.920Z,6.30
2023-01-18T13:45:27.844Z,6.10
2023-01-18T13:48:46.637Z,5.90
2023-01-18T13:51:41.520Z,5.90
2023-01-18T13:54:08.262Z,6.20
2023-01-18T13:56:39.584Z,6.30
2023-01-18T13:59:12.357Z,6.50
2023-01-18T14:01:43.948Z,6.60
2023-01-18T14:04:35.753Z,6.70
2023-01-18T14:07:05.695Z,6.60
2023-01-18T14:09:37.192Z,6.60
2023-01-18T14:12:04.873Z,6.50
2023-01-18T14:14:50.858Z,6.50
2023-01-18T14:17:17.545Z,6.50
2023-01-18T14:19:47.259Z,6.60
2023-01-18T14:22:40.634Z,6.60
2023-01-18T14:25:36.452Z,6.60
2023-01-18T14:28:11.075Z,6.70
2023-01-18T14:30:41.121Z,6.70
2023-01-18T14:33:37.270Z,6.60
2023-01-18T14:36:06.631Z,6.70
2023-01-18T14:38:33.453Z,6.70
2023-01-18T14:41:05.401Z,6.70
2023-01-18T14:43:43.347Z,6.70
2023-01-18T14:46:25.921Z,6.70
2023-01-18T14:48:56.271Z,6.60
2023-01-18T14:51:28.360Z,6.60
2023-01-18T14:54:01.971Z,6.50
2023-01-18T14:56:32.216Z,6.50
2023-01-18T14:59:16.199Z,6.60
2023-01-18T15:01:52.464Z,6.60
2023-01-18T15:04:24.414Z,6.50
2023-01-18T15:06:58.859Z,6.40
2023-01-18T15:09:30.320Z,6.40
2023-01-18T15:12:01.261Z,6.40
2023-01-18T15:14:34.530Z,6.30
2023-01-18T15:17:05.892Z,6.30
2023-01-18T15:19:43.933Z,6.30
2023-01-18T15:22:16.697Z,6.20
2023-01-18T15:24:45.402Z,6.20
2023-01-18T15:27:20.485Z,6.30
2023-01-18T15:29:56.680Z,6.20
2023-01-18T15:32:26.121Z,6.30
2023-01-18T15:34:55.046Z,6.30
2023-01-18T15:37:39.228Z,6.10
2023-01-18T15:40:15.102Z,6.10
2023-01-18T15:43:00.573Z,5.90
2023-01-18T15:45:30.478Z,5.90
2023-01-18T15:48:06.998Z,5.90
2023-01-18T15:50:38.095Z,5.90
2023-01-18T15:53:11.993Z,5.90
2023-01-18T15:55:47.105Z,5.90
2023-01-18T15:58:34.696Z,5.90
2023-01-18T16:01:07.842Z,6.00
2023-01-18T16:03:48.748Z,6.00
2023-01-18T16:06:32.573Z,6.00
2023-01-18T16:08:59.293Z,5.80
2023-01-18T16:11:30.752Z,5.80
2023-01-18T16:14:00.196Z,5.70
2023-01-18T16:16:28.358Z,5.90
2023-01-18T16:19:04.125Z,5.80
2023-01-18T16:22:14.871Z,5.80
2023-01-18T16:24:49.778Z,5.90
2023-01-18T16:27:19.140Z,5.90
2023-01-18T16:29:52.240Z,5.80
2023-01-18T16:32:27.867Z,5.80
2023-01-18T16:35:00.216Z,5.80
2023-01-18T16:37:27.474Z,5.80
2023-01-18T16:39:55.373Z,5.80
2023-01-18T16:42:29.572Z,5.70
2023-01-18T16:45:04.355Z,5.80
2023-01-18T16:47:31.098Z,5.80
2023-01-18T16:49:59.215Z,5.80
2023-01-18T16:52:26.308Z,5.80
2023-01-18T16:54:53.094Z,5.80
2023-01-18T16:57:23.314Z,5.80
2023-01-18T16:59:50.805Z,5.80
2023-01-18T17:02:17.737Z,5.80
2023-01-18T17:04:46.489Z,5.70
2023-01-18T17:07:13.768Z,5.80
2023-01-18T17:09:48.293Z,5.70
2023-01-18T17:12:15.945Z,5.70
2023-01-18T17:14:42.797Z,5.60
2023-01-18T17:17:10.551Z,5.60
2023-01-18T17:19:37.933Z,5.70
2023-01-18T17:22:06.435Z,5.80
2023-01-18T17:24:33.280Z,5.80
2023-01-18T17:27:01.168Z,5.90
2023-01-18T17:29:28.195Z,5.90
2023-01-18T17:31:54.981Z,5.80
2023-01-18T17:34:28.083Z,5.80
2023-01-18T17:36:58.082Z,5.80
2023-01-18T17:39:32.065Z,5.70
2023-01-18T17:42:14.277Z,5.70
2023-01-18T17:44:43.323Z,5.80
2023-01-18T17:47:10.043Z,5.70
2023-01-18T17:49:36.924Z,5.70
2023-01-18T17:52:03.737Z,5.50
2023-01-18T17:54:30.690Z,5.40
2023-01-18T17:56:57.581Z,5.30
2023-01-18T17:59:24.449Z,5.20
2023-01-18T18:01:51.287Z,5.40
2023-01-18T18:04:18.590Z,5.40
2023-01-18T18:06:53.756Z,5.40
2023-01-18T18:09:21.027Z,5.30
2023-01-18T18:11:48.033Z,5.40
2023-01-18T18:14:14.770Z,5.40
2023-01-18T18:16:43.842Z,5.10
2023-01-18T18:19:14.567Z,5.10
2023-01-18T18:21:42.948Z,5.10
2023-01-18T18:24:10.107Z,5.30
2023-01-18T18:26:37.020Z,5.20
2023-01-18T18:29:04.404Z,5.20
2023-01-18T18:31:31.182Z,5.10
2023-01-18T18:33:58.185Z,5.20
2023-01-18T18:36:27.134Z,5.20
2023-01-18T18:38:54.005Z,5.00
2023-01-18T18:41:20.770Z,5.00
2023-01-18T18:43:47.575Z,5.10
2023-01-18T18:46:14.538Z,5.00
2023-01-18T18:48:41.386Z,5.10
2023-01-18T18:51:08.321Z,5.20
2023-01-18T18:53:38.569Z,5.10
2023-01-18T18:56:09.163Z,5.10
2023-01-18T18:58:38.865Z,5.00
2023-01-18T19:01:06.655Z,5.10
2023-01-18T19:03:35.103Z,5.00
2023-01-18T19:06:02.096Z,5.00
2023-01-18T19:08:28.880Z,4.80
2023-01-18T19:10:57.195Z,4.80
2023-01-18T19:13:24.070Z,4.70
2023-01-18T19:15:51.847Z,4.90
2023-01-18T19:18:18.834Z,4.90
2023-01-18T19:20:45.690Z,4.80
2023-01-18T19:23:13.778Z,4.80
2023-01-18T19:25:41.033Z,4.80
2023-01-18T19:28:08.104Z,4.70
2023-01-18T19:30:35.056Z,4.70
2023-01-18T19:33:03.249Z,4.60
2023-01-18T19:35:31.121Z,4.70
2023-01-18T19:38:00.782Z,4.60
2023-01-18T19:40:27.785Z,4.50
2023-01-18T19:42:54.665Z,4.50
2023-01-18T19:45:27.940Z,4.50
2023-01-18T19:47:56.574Z,4.50
2023-01-18T19:50:24.230Z,4.60
2023-01-18T19:52:51.172Z,4.70
2023-01-18T19:55:18.201Z,4.90
2023-01-18T19:57:44.996Z,5.00
2023-01-18T20:00:12.397Z,5.00
2023-01-18T20:02:40.949Z,4.90
2023-01-18T20:05:08.282Z,5.00
2023-01-18T20:07:37.319Z,4.90
2023-01-18T20:10:04.861Z,4.90
2023-01-18T20:12:32.400Z,4.90
2023-01-18T20:14:59.271Z,4.90
2023-01-18T20:17:26.384Z,5.00
2023-01-18T20:19:54.130Z,5.00
2023-01-18T20:22:21.702Z,5.10
2023-01-18T20:24:48.498Z,5.00
2023-01-18T20:27:17.105Z,4.90
2023-01-18T20:29:44.596Z,4.90
2023-01-18T20:32:19.573Z,6.00
2023-01-18T20:34:47.284Z,5.00
2023-01-18T20:37:15.829Z,5.00
2023-01-18T20:39:42.835Z,4.90
2023-01-18T20:42:09.891Z,4.90
2023-01-18T20:44:36.889Z,4.80
2023-01-18T20:47:04.160Z,4.80
2023-01-18T20:49:38.416Z,4.80
2023-01-18T20:52:07.044Z,4.90
2023-01-18T20:54:36.004Z,4.90
2023-01-18T20:57:03.800Z,4.90
2023-01-18T20:59:30.623Z,4.80
2023-01-18T21:01:57.499Z,4.80
2023-01-18T21:04:25.325Z,4.80
2023-01-18T21:06:52.052Z,4.80
2023-01-18T21:09:18.777Z,4.90
2023-01-18T21:11:45.644Z,5.00
2023-01-18T21:14:12.913Z,4.80
2023-01-18T21:16:39.910Z,4.90
2023-01-18T21:19:06.645Z,4.90
2023-01-18T21:21:33.655Z,4.90
2023-01-18T21:24:00.484Z,5.00
2023-01-18T21:26:27.652Z,5.00
2023-01-18T21:28:54.942Z,4.90
2023-01-18T21:31:22.331Z,4.80
2023-01-18T21:33:49.717Z,4.80
2023-01-18T21:36:18.384Z,4.80
2023-01-18T21:38:45.167Z,4.90
2023-01-18T21:41:31.096Z,4.90
2023-01-18T21:44:16.118Z,4.80
2023-01-18T21:46:47.134Z,5.00
2023-01-18T21:49:47.209Z,4.90
2023-01-18T21:52:38.197Z,5.00
2023-01-18T21:55:05.179Z,4.90
2023-01-18T21:57:31.951Z,4.90
2023-01-18T21:59:58.783Z,4.90
2023-01-18T22:02:25.761Z,4.90
2023-01-18T22:05:03.654Z,4.80
2023-01-18T22:07:34.176Z,4.90
2023-01-18T22:10:05.689Z,4.90
2023-01-18T22:12:35.483Z,5.10
2023-01-18T22:15:04.253Z,5.00
2023-01-18T22:17:31.289Z,5.10
2023-01-18T22:19:58.052Z,5.20
2023-01-18T22:22:24.769Z,5.10
2023-01-18T22:24:51.831Z,5.10
2023-01-18T22:27:18.739Z,5.20
2023-01-18T22:29:45.415Z,5.20
2023-01-18T22:32:12.269Z,5.30
2023-01-18T22:34:39.119Z,5.30
2023-01-18T22:37:05.908Z,5.30
2023-01-18T22:39:32.732Z,5.30
2023-01-18T22:41:59.475Z,5.30
2023-01-18T22:44:26.313Z,5.30
2023-01-18T22:46:53.031Z,5.30
2023-01-18T22:49:20.156Z,5.30
2023-01-18T22:51:46.880Z,5.30
2023-01-18T22:54:13.706Z,5.40
2023-01-18T22:56:40.600Z,5.50
2023-01-18T22:59:07.940Z,5.50
2023-01-18T23:01:34.761Z,5.40
2023-01-18T23:04:03.761Z,5.40
2023-01-18T23:06:47.800Z,5.30
2023-01-18T23:09:17.732Z,5.40
2023-01-18T23:11:45.437Z,5.40
2023-01-18T23:14:30.809Z,5.40
2023-01-18T23:17:16.317Z,5.50
2023-01-18T23:19:43.097Z,5.40
2023-01-18T23:22:11.138Z,5.50
2023-01-18T23:24:38.831Z,5.50
2023-01-18T23:27:08.204Z,5.40
2023-01-18T23:29:35.074Z,5.30
2023-01-18T23:32:01.884Z,5.40
2023-01-18T23:34:28.692Z,5.40
2023-01-18T23:36:55.649Z,5.50
2023-01-18T23:39:41.204Z,5.50
2023-01-18T23:42:26.741Z,5.40
2023-01-18T23:45:12.183Z,5.40
2023-01-18T23:47:57.381Z,5.40
2023-01-18T23:50:43.388Z,5.40
2023-01-18T23:53:31.025Z,5.40
2023-01-18T23:55:58.013Z,5.50
2023-01-18T23:58:25.071Z,5.50
